Time;durP1;ratioP1;P1;durP2;ratioP2;P2;SDS_P1;SDS_P2;PMS_P1;PMS_P2;Temp;Humidity;BMP_temperature;BMP_pressure;BME280_temperature;BME280_humidity;BME280_pressure;Samples;Min_cycle;Max_cycle;Signal;HPM_P1;HPM_P2
2024/04/18 00:01:51;;;;;;;;;;;13.90;61.50;;;;;;5249810;26;87348;-39
2024/04/18 00:04:16;;;;;;;;;;;13.90;61.50;;;;;;5256485;26;85428;-39
2024/04/18 00:06:42;;;;;;;;;;;13.90;61.50;;;;;;5255485;26;88166;-39
2024/04/18 00:09:07;;;;;;;;;;;13.80;61.50;;;;;;5263465;26;87262;-39
2024/04/18 00:11:33;;;;;;;;;;;13.80;61.50;;;;;;5247958;26;85092;-39
2024/04/18 00:13:58;;;;;;;;;;;13.80;61.40;;;;;;5256752;26;86027;-39
2024/04/18 00:16:24;;;;;;;;;;;13.80;61.40;;;;;;5246739;26;85876;-38
2024/04/18 00:18:50;;;;;;;;;;;13.80;61.50;;;;;;5269613;26;86728;-39
2024/04/18 00:21:15;;;;;;;;;;;13.70;61.50;;;;;;5252131;26;85221;-39
2024/04/18 00:23:42;;;;;;;;;;;13.70;61.60;;;;;;5260129;26;86871;-39
2024/04/18 00:26:08;;;;;;;;;;;13.70;61.50;;;;;;5262612;26;86151;-39
2024/04/18 00:28:34;;;;;;;;;;;13.70;61.60;;;;;;5260766;26;87027;-39
2024/04/18 00:30:59;;;;;;;;;;;13.70;61.50;;;;;;5252856;26;85267;-39
2024/04/18 00:33:25;;;;;;;;;;;13.70;61.40;;;;;;5264216;26;86629;-39
2024/04/18 00:35:50;;;;;;;;;;;13.70;61.40;;;;;;5241264;26;84639;-39
2024/04/18 00:38:16;;;;;;;;;;;13.70;61.40;;;;;;5255486;26;85432;-40
2024/04/18 00:40:41;;;;;;;;;;;13.60;61.40;;;;;;5249110;26;85718;-39
2024/04/18 00:43:07;;;;;;;;;;;13.60;61.40;;;;;;5271443;26;86306;-39
2024/04/18 00:45:33;;;;;;;;;;;13.50;61.50;;;;;;5256752;26;86060;-39
2024/04/18 00:47:58;;;;;;;;;;;13.50;61.50;;;;;;5260020;26;85705;-39
2024/04/18 00:50:24;;;;;;;;;;;13.60;61.50;;;;;;5243165;26;85417;-38
2024/04/18 00:52:50;;;;;;;;;;;13.60;61.40;;;;;;5265846;26;85364;-39
2024/04/18 00:55:15;;;;;;;;;;;13.50;61.40;;;;;;5253997;26;87104;-41
2024/04/18 00:57:41;;;;;;;;;;;13.50;61.40;;;;;;5261695;26;85342;-39
2024/04/18 01:00:07;;;;;;;;;;;13.50;61.40;;;;;;5246979;26;86138;-39
2024/04/18 01:02:33;;;;;;;;;;;13.50;61.40;;;;;;5250886;26;85491;-39
2024/04/18 01:04:58;;;;;;;;;;;13.50;61.40;;;;;;5254925;26;85821;-39
2024/04/18 01:07:24;;;;;;;;;;;13.50;61.30;;;;;;5262293;26;86757;-39
2024/04/18 01:09:50;;;;;;;;;;;13.50;61.40;;;;;;5259979;26;87202;-39
2024/04/18 01:12:16;;;;;;;;;;;13.40;61.40;;;;;;5247705;26;85633;-40
2024/04/18 01:14:41;;;;;;;;;;;13.40;61.30;;;;;;5266735;26;85204;-40
2024/04/18 01:17:07;;;;;;;;;;;13.40;61.40;;;;;;5251245;26;86484;-40
2024/04/18 01:19:33;;;;;;;;;;;13.40;61.30;;;;;;5269228;26;85794;-39
2024/04/18 01:22:00;;;;;;;;;;;13.30;61.40;;;;;;5258108;26;85861;-39
2024/04/18 01:24:25;;;;;;;;;;;13.30;61.50;;;;;;5258135;26;85404;-40
2024/04/18 01:26:51;;;;;;;;;;;13.40;61.50;;;;;;5233778;26;85640;-39
2024/04/18 01:29:16;;;;;;;;;;;13.30;61.40;;;;;;5260464;26;85438;-39
2024/04/18 01:31:42;;;;;;;;;;;13.30;61.30;;;;;;5243259;26;86687;-40
2024/04/18 01:34:07;;;;;;;;;;;13.20;61.50;;;;;;5259592;26;85838;-40
2024/04/18 01:36:33;;;;;;;;;;;13.20;61.50;;;;;;5249446;26;85495;-39
2024/04/18 01:38:58;;;;;;;;;;;13.30;61.40;;;;;;5259684;26;85245;-39
2024/04/18 01:41:24;;;;;;;;;;;13.30;61.20;;;;;;5242052;26;85522;-39
2024/04/18 01:43:50;;;;;;;;;;;13.30;61.10;;;;;;5266211;26;86543;-40
2024/04/18 01:46:15;;;;;;;;;;;13.30;61.70;;;;;;5245004;26;86154;-39
2024/04/18 01:48:42;;;;;;;;;;;13.30;61.00;;;;;;5264920;26;84654;-40
2024/04/18 01:51:08;;;;;;;;;;;13.30;61.00;;;;;;5254610;26;86150;-40
2024/04/18 01:53:33;;;;;;;;;;;13.30;61.00;;;;;;5257755;26;86982;-39
2024/04/18 01:55:59;;;;;;;;;;;13.20;60.90;;;;;;5242763;26;87128;-39
2024/04/18 01:58:24;;;;;;;;;;;13.20;60.90;;;;;;5262336;26;87672;-39
2024/04/18 02:00:50;;;;;;;;;;;13.20;61.00;;;;;;5252527;26;85313;-39
2024/04/18 02:03:15;;;;;;;;;;;13.20;60.90;;;;;;5238506;26;85690;-40
2024/04/18 02:05:41;;;;;;;;;;;13.20;60.90;;;;;;5254200;26;86778;-39
2024/04/18 02:08:07;;;;;;;;;;;13.20;60.90;;;;;;5253051;26;85921;-40
2024/04/18 02:10:33;;;;;;;;;;;13.20;61.00;;;;;;5253522;26;86725;-40
2024/04/18 02:12:58;;;;;;;;;;;13.10;60.90;;;;;;5251939;26;85388;-40
2024/04/18 02:15:24;;;;;;;;;;;13.10;60.90;;;;;;5252942;26;85475;-39
2024/04/18 02:17:49;;;;;;;;;;;13.10;60.90;;;;;;5250715;26;86854;-39
2024/04/18 02:20:15;;;;;;;;;;;13.10;60.90;;;;;;5252698;26;86727;-40
2024/04/18 02:22:41;;;;;;;;;;;13.10;60.90;;;;;;5248939;26;87466;-40
2024/04/18 02:25:11;;;;;;;;;;;13.10;60.90;;;;;;5253140;26;87148;-40
2024/04/18 02:27:37;;;;;;;;;;;13.00;60.90;;;;;;5252570;26;85309;-40
2024/04/18 02:30:06;;;;;;;;;;;13.00;61.10;;;;;;5262902;26;86732;-39
2024/04/18 02:32:32;;;;;;;;;;;13.00;61.00;;;;;;5246095;26;86889;-39
2024/04/18 02:34:58;;;;;;;;;;;13.00;61.60;;;;;;5260602;26;85490;-40
2024/04/18 02:37:24;;;;;;;;;;;13.00;61.00;;;;;;5254136;26;86581;-39
2024/04/18 02:39:50;;;;;;;;;;;13.00;61.00;;;;;;5258274;26;85846;-39
2024/04/18 02:42:18;;;;;;;;;;;13.00;61.00;;;;;;5242525;26;85205;-40
2024/04/18 02:44:44;;;;;;;;;;;12.90;61.00;;;;;;5258221;26;88032;-40
2024/04/18 02:47:10;;;;;;;;;;;12.90;61.10;;;;;;5242472;26;85635;-39
2024/04/18 02:49:35;;;;;;;;;;;12.90;61.00;;;;;;5255711;26;86573;-39
2024/04/18 02:52:01;;;;;;;;;;;12.90;60.90;;;;;;5248154;26;87093;-39
2024/04/18 02:54:27;;;;;;;;;;;12.90;61.00;;;;;;5262118;26;85189;-39
2024/04/18 02:56:53;;;;;;;;;;;12.80;60.90;;;;;;5251121;26;86477;-40
2024/04/18 02:59:18;;;;;;;;;;;12.80;60.90;;;;;;5261244;26;86277;-39
2024/04/18 03:01:44;;;;;;;;;;;12.80;61.10;;;;;;5254853;26;84954;-39
2024/04/18 03:04:09;;;;;;;;;;;12.80;61.10;;;;;;5247776;26;85164;-39
2024/04/18 03:06:35;;;;;;;;;;;12.80;61.00;;;;;;5260920;26;85653;-40
2024/04/18 03:09:01;;;;;;;;;;;12.80;61.10;;;;;;5255799;26;86853;-39
2024/04/18 03:11:26;;;;;;;;;;;12.70;61.00;;;;;;5252168;26;86028;-39
2024/04/18 03:13:52;;;;;;;;;;;12.70;61.10;;;;;;5249681;26;85181;-39
2024/04/18 03:16:17;;;;;;;;;;;12.70;61.10;;;;;;5261539;26;86606;-39
2024/04/18 03:18:44;;;;;;;;;;;12.80;61.00;;;;;;5249055;26;87257;-40
2024/04/18 03:21:10;;;;;;;;;;;12.70;61.10;;;;;;5253008;26;85460;-40
2024/04/18 03:23:36;;;;;;;;;;;12.70;61.10;;;;;;5252236;26;85495;-39
2024/04/18 03:26:01;;;;;;;;;;;12.70;61.10;;;;;;5255405;26;85044;-39
2024/04/18 03:28:27;;;;;;;;;;;12.70;61.10;;;;;;5246997;26;85259;-39
2024/04/18 03:30:52;;;;;;;;;;;12.70;61.00;;;;;;5270599;26;86721;-39
2024/04/18 03:33:18;;;;;;;;;;;12.60;61.00;;;;;;5241352;26;86084;-39
2024/04/18 03:35:43;;;;;;;;;;;12.60;61.00;;;;;;5269253;26;87328;-39
2024/04/18 03:38:09;;;;;;;;;;;12.60;60.90;;;;;;5246631;26;87363;-39
2024/04/18 03:40:35;;;;;;;;;;;12.60;60.90;;;;;;5251415;26;86039;-39
2024/04/18 03:43:00;;;;;;;;;;;12.60;60.90;;;;;;5250615;26;86385;-40
2024/04/18 03:45:26;;;;;;;;;;;12.60;60.80;;;;;;5267441;26;86836;-40
2024/04/18 03:47:52;;;;;;;;;;;12.60;60.90;;;;;;5245100;26;86616;-40
2024/04/18 03:50:18;;;;;;;;;;;12.60;60.80;;;;;;5254479;26;85033;-39
2024/04/18 03:52:44;;;;;;;;;;;12.50;60.90;;;;;;5254281;26;86581;-39
2024/04/18 03:55:09;;;;;;;;;;;12.50;60.90;;;;;;5253442;26;86279;-40
2024/04/18 03:57:35;;;;;;;;;;;12.50;61.00;;;;;;5241982;26;86519;-39
2024/04/18 04:00:01;;;;;;;;;;;12.50;61.10;;;;;;5264204;26;85302;-39
2024/04/18 04:02:27;;;;;;;;;;;12.50;61.20;;;;;;5250694;26;88026;-39
2024/04/18 04:04:53;;;;;;;;;;;12.40;61.10;;;;;;5267275;26;86895;-40
2024/04/18 04:07:20;;;;;;;;;;;12.40;61.10;;;;;;5251778;26;85288;-40
2024/04/18 04:09:45;;;;;;;;;;;12.50;61.20;;;;;;5248619;26;87034;-39
2024/04/18 04:12:11;;;;;;;;;;;12.40;61.30;;;;;;5251148;26;85242;-39
2024/04/18 04:14:37;;;;;;;;;;;12.40;61.30;;;;;;5258472;26;84500;-39
2024/04/18 04:17:02;;;;;;;;;;;12.40;61.30;;;;;;5253871;26;86054;-40
2024/04/18 04:19:28;;;;;;;;;;;12.40;61.30;;;;;;5256085;26;85999;-39
2024/04/18 04:21:53;;;;;;;;;;;12.30;61.20;;;;;;5245367;26;86228;-40
2024/04/18 04:24:19;;;;;;;;;;;12.40;61.10;;;;;;5247654;26;87025;-39
2024/04/18 04:26:44;;;;;;;;;;;12.30;61.10;;;;;;5267580;26;86265;-40
2024/04/18 04:29:10;;;;;;;;;;;12.30;61.10;;;;;;5248558;26;86460;-39
2024/04/18 04:31:36;;;;;;;;;;;12.30;61.10;;;;;;5258537;26;85249;-40
2024/04/18 04:34:02;;;;;;;;;;;12.30;61.20;;;;;;5244633;26;85308;-39
2024/04/18 04:36:27;;;;;;;;;;;12.30;61.20;;;;;;5262648;26;85834;-39
2024/04/18 04:38:53;;;;;;;;;;;12.20;61.20;;;;;;5247911;26;84545;-39
2024/04/18 04:41:18;;;;;;;;;;;12.30;61.30;;;;;;5264932;26;85432;-39
2024/04/18 04:43:44;;;;;;;;;;;12.20;61.20;;;;;;5243979;26;86988;-40
2024/04/18 04:46:09;;;;;;;;;;;12.20;61.30;;;;;;5259715;26;86756;-39
2024/04/18 04:48:35;;;;;;;;;;;12.20;61.30;;;;;;5248714;26;87581;-40
2024/04/18 04:51:01;;;;;;;;;;;12.20;61.30;;;;;;5250272;26;85752;-39
2024/04/18 04:53:27;;;;;;;;;;;12.20;61.40;;;;;;5247577;26;86570;-39
2024/04/18 04:55:53;;;;;;;;;;;12.20;61.40;;;;;;5244904;26;86968;-40
2024/04/18 04:58:19;;;;;;;;;;;12.20;61.30;;;;;;5249697;26;85185;-39
2024/04/18 05:00:45;;;;;;;;;;;12.20;61.20;;;;;;5249666;26;86698;-39
2024/04/18 05:03:10;;;;;;;;;;;12.20;61.20;;;;;;5256148;26;85167;-39
2024/04/18 05:05:36;;;;;;;;;;;12.20;61.30;;;;;;5255069;26;85282;-39
2024/04/18 05:08:02;;;;;;;;;;;12.20;61.30;;;;;;5251077;26;85409;-39
2024/04/18 05:10:27;;;;;;;;;;;12.10;61.40;;;;;;5256577;26;87083;-39
2024/04/18 05:12:54;;;;;;;;;;;12.10;61.40;;;;;;5262126;26;85127;-40
2024/04/18 05:15:19;;;;;;;;;;;12.10;61.40;;;;;;5246984;26;88133;-40
2024/04/18 05:17:45;;;;;;;;;;;12.10;61.30;;;;;;5255275;26;85955;-41
2024/04/18 05:20:10;;;;;;;;;;;12.10;61.30;;;;;;5246384;26;86744;-39
2024/04/18 05:22:36;;;;;;;;;;;12.10;61.40;;;;;;5267463;26;87225;-39
2024/04/18 05:25:02;;;;;;;;;;;12.10;61.40;;;;;;5251187;26;85190;-39
2024/04/18 05:27:27;;;;;;;;;;;12.10;61.40;;;;;;5260011;26;85303;-39
2024/04/18 05:32:37;;;;;;;;;;;12.10;61.40;;;;;;5259867;26;85343;-39
2024/04/18 05:35:03;;;;;;;;;;;12.10;61.40;;;;;;5251605;26;86706;-39
2024/04/18 05:37:28;;;;;;;;;;;12.00;61.40;;;;;;5249951;26;85292;-39
2024/04/18 05:39:54;;;;;;;;;;;12.00;61.60;;;;;;5245663;26;86425;-39
2024/04/18 05:42:19;;;;;;;;;;;12.00;61.50;;;;;;5263038;26;87947;-39
2024/04/18 05:44:46;;;;;;;;;;;12.10;61.40;;;;;;5255648;26;86285;-39
2024/04/18 05:47:11;;;;;;;;;;;12.00;61.40;;;;;;5252222;26;86671;-39
2024/04/18 05:49:37;;;;;;;;;;;12.00;61.40;;;;;;5249767;26;86976;-39
2024/04/18 05:52:03;;;;;;;;;;;12.00;61.50;;;;;;5260068;26;84691;-39
2024/04/18 05:54:29;;;;;;;;;;;12.00;61.30;;;;;;5253079;26;85233;-39
2024/04/18 05:56:54;;;;;;;;;;;12.00;61.40;;;;;;5248960;26;85769;-39
2024/04/18 05:59:20;;;;;;;;;;;12.00;61.40;;;;;;5255816;26;86727;-40
2024/04/18 06:01:45;;;;;;;;;;;12.00;61.40;;;;;;5254231;26;85769;-39
2024/04/18 06:04:11;;;;;;;;;;;12.00;61.40;;;;;;5242873;26;85260;-39
2024/04/18 06:06:37;;;;;;;;;;;12.00;61.50;;;;;;5253882;26;87597;-39
2024/04/18 06:09:02;;;;;;;;;;;11.90;61.60;;;;;;5262297;26;87049;-39
2024/04/18 06:11:42;;;;;;;;;;;12.00;61.40;;;;;;5260885;26;85339;-39
2024/04/18 06:14:07;;;;;;;;;;;12.00;61.40;;;;;;5248722;26;85770;-39
2024/04/18 06:16:33;;;;;;;;;;;12.00;61.30;;;;;;5255374;26;85117;-39
2024/04/18 06:18:59;;;;;;;;;;;12.00;61.20;;;;;;5265849;26;86210;-39
2024/04/18 06:21:25;;;;;;;;;;;12.00;61.10;;;;;;5244723;26;85972;-38
2024/04/18 06:23:51;;;;;;;;;;;11.90;61.30;;;;;;5253991;26;86282;-39
2024/04/18 06:26:16;;;;;;;;;;;11.90;61.30;;;;;;5242285;26;86312;-39
2024/04/18 06:28:42;;;;;;;;;;;11.90;61.50;;;;;;5264324;26;86962;-39
2024/04/18 06:31:08;;;;;;;;;;;12.00;61.40;;;;;;5238927;26;85935;-39
2024/04/18 06:33:33;;;;;;;;;;;11.90;61.40;;;;;;5267663;26;87404;-39
2024/04/18 06:35:59;;;;;;;;;;;11.90;61.40;;;;;;5237769;26;85852;-39
2024/04/18 06:38:24;;;;;;;;;;;11.90;61.40;;;;;;5265742;26;86184;-39
2024/04/18 06:40:50;;;;;;;;;;;11.90;61.60;;;;;;5248856;26;86480;-40
2024/04/18 06:43:15;;;;;;;;;;;11.90;61.50;;;;;;5249115;26;86104;-39
2024/04/18 06:45:43;;;;;;;;;;;11.80;61.60;;;;;;5243711;26;86755;-39
2024/04/18 06:48:08;;;;;;;;;;;11.90;61.60;;;;;;5251828;26;87488;-39
2024/04/18 06:50:35;;;;;;;;;;;11.80;61.80;;;;;;5240184;26;85408;-39
2024/04/18 06:53:01;;;;;;;;;;;11.80;61.90;;;;;;5251121;26;85458;-39
2024/04/18 06:55:26;;;;;;;;;;;11.80;61.70;;;;;;5252454;26;86224;-39
2024/04/18 06:57:52;;;;;;;;;;;11.80;61.80;;;;;;5258875;26;86880;-40
2024/04/18 07:00:18;;;;;;;;;;;11.80;61.70;;;;;;5254061;26;86793;-39
2024/04/18 07:02:44;;;;;;;;;;;11.80;61.70;;;;;;5248002;26;85342;-39
2024/04/18 07:05:10;;;;;;;;;;;11.80;62.00;;;;;;5253895;26;87087;-39
2024/04/18 07:07:35;;;;;;;;;;;11.70;62.00;;;;;;5245257;26;86743;-39
2024/04/18 07:10:01;;;;;;;;;;;11.70;61.90;;;;;;5248356;26;85309;-39
2024/04/18 07:12:26;;;;;;;;;;;11.70;61.80;;;;;;5247608;26;86703;-39
2024/04/18 07:14:52;;;;;;;;;;;11.70;62.00;;;;;;5254466;26;86257;-41
2024/04/18 07:17:17;;;;;;;;;;;11.70;62.00;;;;;;5253243;26;85364;-39
2024/04/18 07:19:43;;;;;;;;;;;11.70;61.90;;;;;;5261868;26;85312;-39
2024/04/18 07:22:08;;;;;;;;;;;11.70;62.20;;;;;;5234271;26;85255;-39
2024/04/18 07:24:34;;;;;;;;;;;11.70;62.10;;;;;;5261363;26;85309;-39
2024/04/18 07:26:59;;;;;;;;;;;11.70;62.00;;;;;;5241749;26;85638;-39
2024/04/18 07:29:25;;;;;;;;;;;11.70;62.30;;;;;;5261236;26;84793;-39
2024/04/18 07:31:51;;;;;;;;;;;11.70;62.20;;;;;;5250751;26;85875;-39
2024/04/18 07:34:16;;;;;;;;;;;11.60;62.30;;;;;;5265266;26;86113;-40
2024/04/18 07:36:48;;;;;;;;;;;11.60;62.20;;;;;;5249449;26;86313;-39
2024/04/18 07:39:14;;;;;;;;;;;11.60;62.20;;;;;;5253414;26;86192;-39
2024/04/18 07:41:39;;;;;;;;;;;11.60;62.10;;;;;;5247039;26;87190;-39
2024/04/18 07:44:07;;;;;;;;;;;11.60;62.20;;;;;;5261265;26;85566;-39
2024/04/18 07:46:33;;;;;;;;;;;11.60;62.00;;;;;;5244677;26;87034;-39
2024/04/18 07:48:59;;;;;;;;;;;11.60;62.10;;;;;;5253734;26;85308;-39
2024/04/18 07:51:25;;;;;;;;;;;11.60;62.00;;;;;;5248017;26;86183;-39
2024/04/18 07:53:50;;;;;;;;;;;11.60;62.10;;;;;;5254348;26;86096;-40
2024/04/18 07:56:16;;;;;;;;;;;11.60;62.10;;;;;;5254762;26;86226;-39
2024/04/18 07:58:42;;;;;;;;;;;11.60;62.20;;;;;;5248397;26;85283;-39
2024/04/18 08:01:11;;;;;;;;;;;11.60;62.20;;;;;;5248554;26;87765;-39
2024/04/18 08:03:40;;;;;;;;;;;11.60;62.40;;;;;;5258826;26;85198;-39
2024/04/18 08:06:05;;;;;;;;;;;11.60;62.10;;;;;;5263449;26;86061;-39
2024/04/18 08:08:31;;;;;;;;;;;11.60;62.20;;;;;;5253270;26;86000;-39
2024/04/18 08:10:56;;;;;;;;;;;11.60;62.00;;;;;;5257257;26;85615;-39
2024/04/18 08:13:22;;;;;;;;;;;11.60;62.10;;;;;;5252652;26;86981;-39
2024/04/18 08:15:47;;;;;;;;;;;11.60;62.30;;;;;;5258499;26;85564;-39
2024/04/18 08:18:16;;;;;;;;;;;11.60;62.30;;;;;;5251632;26;85421;-39
2024/04/18 08:20:42;;;;;;;;;;;11.50;62.40;;;;;;5254540;26;85694;-39
2024/04/18 08:23:07;;;;;;;;;;;11.50;62.40;;;;;;5240286;26;86755;-39
2024/04/18 08:25:33;;;;;;;;;;;11.50;62.50;;;;;;5269849;26;86541;-39
2024/04/18 08:27:59;;;;;;;;;;;11.50;62.60;;;;;;5252595;26;85457;-39
2024/04/18 08:30:24;;;;;;;;;;;11.50;62.50;;;;;;5267684;26;85972;-39
2024/04/18 08:32:50;;;;;;;;;;;11.50;62.40;;;;;;5246435;26;86454;-39
2024/04/18 08:35:18;;;;;;;;;;;11.50;62.50;;;;;;5265246;26;86341;-39
2024/04/18 08:37:44;;;;;;;;;;;11.50;62.40;;;;;;5250108;26;86578;-39
2024/04/18 08:40:10;;;;;;;;;;;11.50;62.50;;;;;;5249938;26;85587;-39
2024/04/18 08:42:36;;;;;;;;;;;11.50;62.50;;;;;;5255838;26;84592;-39
2024/04/18 08:45:03;;;;;;;;;;;11.50;62.40;;;;;;5264259;26;86292;-39
2024/04/18 08:47:31;;;;;;;;;;;11.50;62.30;;;;;;5256477;26;85932;-39
2024/04/18 08:49:56;;;;;;;;;;;11.50;62.30;;;;;;5249810;26;86647;-39
2024/04/18 08:52:22;;;;;;;;;;;11.50;62.20;;;;;;5254936;26;87096;-39
2024/04/18 08:54:48;;;;;;;;;;;11.50;62.10;;;;;;5242883;26;85267;-39
2024/04/18 08:57:19;;;;;;;;;;;11.50;62.20;;;;;;5250802;26;86425;-39
2024/04/18 08:59:46;;;;;;;;;;;11.50;62.30;;;;;;5252093;26;85869;-40
2024/04/18 09:02:12;;;;;;;;;;;11.50;62.20;;;;;;5255091;26;85294;-39
2024/04/18 09:04:38;;;;;;;;;;;11.50;62.40;;;;;;5248662;26;85295;-39
2024/04/18 09:07:05;;;;;;;;;;;11.50;62.40;;;;;;5251667;26;86484;-39
2024/04/18 09:09:30;;;;;;;;;;;11.50;62.20;;;;;;5253858;26;85547;-39
2024/04/18 09:11:56;;;;;;;;;;;11.50;62.20;;;;;;5255458;26;86881;-39
2024/04/18 09:14:22;;;;;;;;;;;11.50;62.40;;;;;;5245923;26;86245;-39
2024/04/18 09:16:48;;;;;;;;;;;11.50;62.40;;;;;;5269194;26;86303;-39
2024/04/18 09:19:14;;;;;;;;;;;11.50;62.50;;;;;;5237570;26;87058;-38
2024/04/18 09:21:40;;;;;;;;;;;11.50;62.40;;;;;;5267584;26;85257;-39
2024/04/18 09:24:06;;;;;;;;;;;11.50;62.40;;;;;;5249895;26;85801;-40
2024/04/18 09:26:31;;;;;;;;;;;11.50;62.50;;;;;;5266837;26;86226;-39
2024/04/18 09:28:57;;;;;;;;;;;11.50;62.40;;;;;;5241185;26;85360;-39
2024/04/18 09:31:26;;;;;;;;;;;11.50;62.40;;;;;;5267735;26;86255;-39
2024/04/18 09:33:52;;;;;;;;;;;11.50;62.50;;;;;;5243413;26;85589;-39
2024/04/18 09:36:18;;;;;;;;;;;11.50;62.30;;;;;;5246974;26;86905;-40
2024/04/18 09:38:47;;;;;;;;;;;11.50;62.20;;;;;;5245283;26;86723;-39
2024/04/18 09:41:29;;;;;;;;;;;11.50;62.60;;;;;;5264512;26;85212;-39
2024/04/18 09:44:16;;;;;;;;;;;11.50;62.60;;;;;;5265496;26;88486;-39
2024/04/18 09:46:42;;;;;;;;;;;11.50;62.50;;;;;;5245229;26;85892;-39
2024/04/18 09:49:09;;;;;;;;;;;11.40;62.50;;;;;;5258312;26;85350;-40
2024/04/18 09:51:35;;;;;;;;;;;11.40;62.50;;;;;;5257840;26;85737;-40
2024/04/18 09:54:01;;;;;;;;;;;11.40;62.40;;;;;;5256518;26;86050;-39
2024/04/18 09:56:28;;;;;;;;;;;11.40;62.50;;;;;;5246182;26;86522;-39
2024/04/18 09:58:54;;;;;;;;;;;11.40;62.60;;;;;;5257752;26;86054;-39
2024/04/18 10:01:20;;;;;;;;;;;11.40;62.40;;;;;;5248562;26;85334;-41
2024/04/18 10:03:45;;;;;;;;;;;11.40;62.60;;;;;;5257595;26;86883;-39
2024/04/18 10:06:13;;;;;;;;;;;11.40;62.60;;;;;;5245695;26;87750;-39
2024/04/18 10:08:40;;;;;;;;;;;11.40;62.50;;;;;;5265073;26;85281;-40
2024/04/18 10:11:06;;;;;;;;;;;11.40;62.60;;;;;;5254387;26;85389;-39
2024/04/18 10:13:31;;;;;;;;;;;11.40;62.60;;;;;;5269582;26;85772;-39
2024/04/18 10:16:08;;;;;;;;;;;11.40;62.60;;;;;;5243484;26;85875;-39
2024/04/18 10:18:37;;;;;;;;;;;11.40;62.60;;;;;;5255352;26;86953;-40
2024/04/18 10:21:12;;;;;;;;;;;11.40;62.60;;;;;;5249112;26;86316;-39
2024/04/18 10:23:50;;;;;;;;;;;11.40;62.60;;;;;;5243970;26;85928;-39
2024/04/18 10:26:16;;;;;;;;;;;11.40;62.60;;;;;;5259805;26;87198;-40
2024/04/18 10:28:42;;;;;;;;;;;11.40;62.40;;;;;;5240846;26;86154;-40
2024/04/18 10:31:08;;;;;;;;;;;11.40;62.60;;;;;;5252016;26;86419;-39
2024/04/18 10:33:38;;;;;;;;;;;11.40;62.60;;;;;;5250952;26;85840;-39
2024/04/18 10:36:07;;;;;;;;;;;11.40;62.60;;;;;;5253782;26;85453;-39
2024/04/18 10:38:33;;;;;;;;;;;11.40;62.60;;;;;;5245744;26;87373;-40
2024/04/18 10:40:59;;;;;;;;;;;11.40;62.60;;;;;;5258518;26;85030;-39
2024/04/18 10:43:26;;;;;;;;;;;11.40;62.60;;;;;;5237215;26;85213;-39
2024/04/18 10:45:53;;;;;;;;;;;11.40;62.60;;;;;;5265586;26;85063;-39
2024/04/18 10:48:19;;;;;;;;;;;11.40;62.70;;;;;;5243869;26;85317;-40
2024/04/18 10:50:45;;;;;;;;;;;11.40;62.50;;;;;;5258103;26;86609;-39
2024/04/18 10:53:10;;;;;;;;;;;11.40;62.60;;;;;;5237363;26;86850;-39
2024/04/18 10:55:37;;;;;;;;;;;11.40;62.60;;;;;;5247212;26;85259;-40
2024/04/18 10:58:03;;;;;;;;;;;11.40;62.60;;;;;;5243032;26;86666;-39
2024/04/18 11:00:31;;;;;;;;;;;11.40;62.60;;;;;;5252611;26;85759;-39
2024/04/18 11:02:57;;;;;;;;;;;11.40;62.50;;;;;;5252591;26;86600;-39
2024/04/18 11:05:23;;;;;;;;;;;11.40;62.50;;;;;;5258898;26;85658;-40
2024/04/18 11:07:53;;;;;;;;;;;11.40;62.70;;;;;;5252091;26;85725;-40
2024/04/18 11:10:19;;;;;;;;;;;11.40;62.50;;;;;;5261489;26;87589;-40
2024/04/18 11:12:45;;;;;;;;;;;11.40;62.40;;;;;;5257300;26;86741;-40
2024/04/18 11:15:15;;;;;;;;;;;11.40;62.60;;;;;;5258782;26;85255;-39
2024/04/18 11:17:41;;;;;;;;;;;11.40;62.50;;;;;;5264315;26;86083;-40
2024/04/18 11:20:10;;;;;;;;;;;11.40;62.40;;;;;;5242909;26;86263;-40
2024/04/18 11:22:37;;;;;;;;;;;11.40;62.50;;;;;;5244780;26;87228;-40
2024/04/18 11:25:02;;;;;;;;;;;11.40;62.40;;;;;;5256631;26;87013;-39
2024/04/18 11:27:28;;;;;;;;;;;11.40;62.50;;;;;;5263831;26;85348;-39
2024/04/18 11:29:54;;;;;;;;;;;11.40;62.50;;;;;;5252321;26;85277;-39
2024/04/18 11:32:19;;;;;;;;;;;11.40;62.50;;;;;;5263188;26;87072;-40
2024/04/18 11:34:46;;;;;;;;;;;11.40;62.50;;;;;;5248678;26;84465;-40
2024/04/18 11:37:12;;;;;;;;;;;11.40;62.50;;;;;;5257598;26;85802;-40
2024/04/18 11:39:40;;;;;;;;;;;11.40;62.40;;;;;;5247585;26;87000;-40
2024/04/18 11:42:06;;;;;;;;;;;11.40;62.30;;;;;;5253725;26;88046;-40
2024/04/18 11:44:32;;;;;;;;;;;11.40;62.40;;;;;;5254281;26;86999;-39
2024/04/18 11:46:57;;;;;;;;;;;11.40;62.40;;;;;;5262422;26;86226;-39
2024/04/18 11:49:23;;;;;;;;;;;11.40;62.30;;;;;;5250531;26;85282;-39
2024/04/18 11:51:48;;;;;;;;;;;11.40;62.30;;;;;;5266388;26;87118;-40
2024/04/18 11:57:17;;;;;;;;;;;11.40;62.40;;;;;;5254085;26;86251;-39
2024/04/18 11:59:43;;;;;;;;;;;11.40;62.40;;;;;;5259515;26;86214;-40
2024/04/18 12:02:09;;;;;;;;;;;11.40;62.30;;;;;;5263238;26;85396;-40
2024/04/18 12:04:35;;;;;;;;;;;11.40;62.30;;;;;;5261755;26;85973;-40
2024/04/18 12:07:00;;;;;;;;;;;11.40;62.40;;;;;;5246645;26;87047;-39
2024/04/18 12:09:26;;;;;;;;;;;11.40;62.50;;;;;;5257514;26;87536;-39
2024/04/18 12:11:52;;;;;;;;;;;11.40;62.40;;;;;;5244497;26;86945;-40
2024/04/18 12:14:17;;;;;;;;;;;11.40;62.60;;;;;;5262423;26;85354;-40
2024/04/18 12:16:43;;;;;;;;;;;11.40;62.40;;;;;;5231037;26;86403;-40
2024/04/18 12:19:09;;;;;;;;;;;11.40;62.60;;;;;;5256661;26;87043;-40
2024/04/18 12:21:34;;;;;;;;;;;11.40;62.50;;;;;;5243146;26;85272;-40
2024/04/18 12:24:00;;;;;;;;;;;11.40;62.50;;;;;;5265315;26;85400;-40
2024/04/18 12:26:25;;;;;;;;;;;11.40;62.50;;;;;;5238945;26;85419;-39
2024/04/18 12:28:51;;;;;;;;;;;11.40;62.60;;;;;;5264004;26;85564;-40
2024/04/18 12:31:17;;;;;;;;;;;11.40;62.60;;;;;;5241156;26;88006;-40
2024/04/18 12:33:42;;;;;;;;;;;11.40;62.40;;;;;;5257824;26;85368;-40
2024/04/18 12:36:11;;;;;;;;;;;11.40;62.50;;;;;;5250351;26;85643;-40
2024/04/18 12:38:37;;;;;;;;;;;11.40;62.40;;;;;;5262150;26;87003;-40
2024/04/18 12:41:03;;;;;;;;;;;11.40;62.60;;;;;;5255011;26;86127;-40
2024/04/18 12:43:29;;;;;;;;;;;11.40;63.30;;;;;;5253211;26;85408;-39
2024/04/18 12:45:54;;;;;;;;;;;11.40;62.60;;;;;;5264524;26;85512;-41
2024/04/18 12:48:20;;;;;;;;;;;11.40;62.60;;;;;;5260288;26;87996;-40
2024/04/18 12:50:46;;;;;;;;;;;11.40;62.50;;;;;;5246669;26;85734;-40
2024/04/18 12:53:11;;;;;;;;;;;11.50;62.50;;;;;;5251687;26;85368;-40
2024/04/18 12:55:37;;;;;;;;;;;11.40;62.30;;;;;;5251217;26;86878;-40
2024/04/18 12:58:02;;;;;;;;;;;11.50;62.40;;;;;;5248558;26;86929;-40
2024/04/18 13:00:28;;;;;;;;;;;11.50;62.30;;;;;;5259330;26;85175;-40
2024/04/18 13:02:54;;;;;;;;;;;11.50;62.30;;;;;;5259374;26;85355;-40
2024/04/18 13:05:19;;;;;;;;;;;11.40;62.40;;;;;;5255371;26;86917;-40
2024/04/18 13:07:45;;;;;;;;;;;11.50;62.40;;;;;;5253040;26;85195;-40
2024/04/18 13:10:11;;;;;;;;;;;11.50;62.50;;;;;;5253377;26;85824;-40
2024/04/18 13:12:36;;;;;;;;;;;11.40;62.30;;;;;;5252008;26;84776;-40
2024/04/18 13:15:02;;;;;;;;;;;11.50;62.50;;;;;;5259746;26;85843;-40
2024/04/18 13:17:27;;;;;;;;;;;11.50;62.50;;;;;;5251751;26;85962;-40
2024/04/18 13:19:53;;;;;;;;;;;11.50;62.30;;;;;;5254329;26;86275;-40
2024/04/18 13:22:19;;;;;;;;;;;11.50;62.40;;;;;;5229975;26;87130;-40
2024/04/18 13:24:44;;;;;;;;;;;11.50;62.70;;;;;;5249973;26;87325;-39
2024/04/18 13:27:10;;;;;;;;;;;11.40;62.30;;;;;;5234761;26;85705;-40
2024/04/18 13:29:36;;;;;;;;;;;11.50;62.30;;;;;;5271195;26;85564;-40
2024/04/18 13:32:02;;;;;;;;;;;11.50;62.40;;;;;;5235227;26;85535;-40
2024/04/18 13:34:27;;;;;;;;;;;11.50;62.30;;;;;;5268325;26;86462;-39
2024/04/18 13:36:53;;;;;;;;;;;11.50;62.20;;;;;;5245606;26;86150;-40
2024/04/18 13:39:18;;;;;;;;;;;11.50;62.30;;;;;;5260191;26;85276;-40
2024/04/18 13:41:45;;;;;;;;;;;11.50;62.20;;;;;;5245045;26;86771;-40
2024/04/18 13:44:10;;;;;;;;;;;11.50;62.40;;;;;;5253648;26;87868;-40
2024/04/18 13:46:36;;;;;;;;;;;11.40;62.40;;;;;;5247897;26;85264;-40
2024/04/18 13:49:02;;;;;;;;;;;11.50;62.40;;;;;;5253612;26;85647;-40
2024/04/18 13:51:27;;;;;;;;;;;11.50;62.50;;;;;;5247364;26;85706;-40
2024/04/18 13:53:55;;;;;;;;;;;11.50;62.50;;;;;;5253709;26;86644;-40
2024/04/18 13:56:21;;;;;;;;;;;11.50;62.40;;;;;;5256272;26;87155;-40
2024/04/18 13:58:46;;;;;;;;;;;11.50;62.50;;;;;;5248946;26;85241;-40
2024/04/18 14:01:12;;;;;;;;;;;11.50;62.50;;;;;;5258549;26;85794;-40
2024/04/18 14:03:37;;;;;;;;;;;11.50;62.80;;;;;;5253743;26;86345;-40
2024/04/18 14:06:04;;;;;;;;;;;11.50;62.50;;;;;;5242771;26;86127;-40
2024/04/18 14:08:29;;;;;;;;;;;11.50;62.50;;;;;;5237755;26;86610;-40
2024/04/18 14:10:55;;;;;;;;;;;11.50;62.40;;;;;;5265308;26;86960;-39
2024/04/18 14:13:22;;;;;;;;;;;11.50;62.20;;;;;;5239158;26;87170;-40
2024/04/18 14:18:51;;;;;;;;;;;11.50;62.40;;;;;;5235621;26;85748;-39